createdAt,value
2023-09-16T00:02:19.030Z,4.27
2023-09-16T00:04:46.886Z,4.50
2023-09-16T00:07:14.748Z,4.13
2023-09-16T00:09:43.424Z,3.73
2023-09-16T00:12:11.203Z,4.60
2023-09-16T00:14:39.384Z,4.30
2023-09-16T00:17:10.330Z,3.90
2023-09-16T00:19:38.117Z,4.43
2023-09-16T00:22:11.302Z,3.70
2023-09-16T00:24:38.986Z,4.20
2023-09-16T00:27:08.528Z,4.10
2023-09-16T00:29:36.597Z,3.70
2023-09-16T00:32:05.177Z,4.33
2023-09-16T00:34:34.610Z,3.60
2023-09-16T00:37:02.425Z,3.93
2023-09-16T00:39:30.256Z,4.03
2023-09-16T00:41:58.216Z,3.60
2023-09-16T00:44:26.126Z,3.77
2023-09-16T00:46:53.729Z,3.67
2023-09-16T00:49:21.387Z,3.83
2023-09-16T00:51:50.624Z,4.13
2023-09-16T00:54:18.422Z,4.20
2023-09-16T00:56:46.823Z,3.60
2023-09-16T00:59:14.815Z,3.70
2023-09-16T01:01:46.164Z,3.77
2023-09-16T01:04:14.114Z,3.20
2023-09-16T01:06:44.259Z,3.40
2023-09-16T01:09:13.517Z,3.20
2023-09-16T01:11:41.197Z,3.50
2023-09-16T01:14:12.414Z,3.53
2023-09-16T01:16:45.605Z,3.00
2023-09-16T01:19:21.190Z,3.90
2023-09-16T01:21:50.278Z,3.40
2023-09-16T01:24:20.980Z,3.53
2023-09-16T01:26:50.013Z,3.53
2023-09-16T01:29:19.704Z,3.40
2023-09-16T01:31:48.385Z,3.60
2023-09-16T01:34:24.443Z,3.83
2023-09-16T01:36:54.453Z,3.13
2023-09-16T01:39:24.484Z,3.60
2023-09-16T01:41:55.514Z,3.77
2023-09-16T01:44:23.279Z,3.80
2023-09-16T01:46:50.915Z,3.30
2023-09-16T01:49:18.634Z,3.50
2023-09-16T01:51:46.343Z,4.53
2023-09-16T01:54:14.104Z,3.80
2023-09-16T01:56:42.049Z,3.27
2023-09-16T01:59:10.992Z,4.20
2023-09-16T02:01:38.712Z,3.70
2023-09-16T02:04:07.428Z,3.83
2023-09-16T02:06:35.118Z,4.37
2023-09-16T02:09:02.740Z,3.90
2023-09-16T02:11:31.948Z,3.50
2023-09-16T02:14:00.538Z,4.13
2023-09-16T02:16:29.652Z,4.33
2023-09-16T02:18:57.342Z,3.73
2023-09-16T02:21:25.109Z,4.27
2023-09-16T02:23:52.982Z,4.47
2023-09-16T02:26:20.778Z,4.23
2023-09-16T02:28:48.743Z,3.80
2023-09-16T02:31:17.144Z,3.80
2023-09-16T02:33:46.255Z,3.80
2023-09-16T02:36:14.063Z,4.17
2023-09-16T02:38:41.792Z,4.47
2023-09-16T02:41:09.460Z,4.37
2023-09-16T02:43:37.217Z,3.80
2023-09-16T02:46:04.959Z,3.37
2023-09-16T02:48:32.651Z,4.07
2023-09-16T02:51:01.641Z,3.97
2023-09-16T02:53:29.366Z,4.23
2023-09-16T02:55:57.459Z,3.83
2023-09-16T02:58:25.210Z,4.60
2023-09-16T03:00:53.142Z,3.40
2023-09-16T03:03:20.982Z,4.13
2023-09-16T03:05:48.701Z,3.70
2023-09-16T03:08:17.694Z,4.47
2023-09-16T03:10:46.228Z,4.83
2023-09-16T03:13:13.869Z,4.33
2023-09-16T03:15:46.475Z,3.60
2023-09-16T03:18:14.546Z,4.00
2023-09-16T03:20:42.270Z,4.90
2023-09-16T03:23:10.134Z,4.10
2023-09-16T03:25:39.210Z,4.60
2023-09-16T03:28:06.860Z,3.40
2023-09-16T03:30:34.775Z,3.50
2023-09-16T03:33:03.451Z,3.53
2023-09-16T03:35:32.360Z,3.93
2023-09-16T03:38:00.382Z,4.50
2023-09-16T03:40:28.151Z,3.93
2023-09-16T03:42:58.131Z,3.93
2023-09-16T03:45:29.562Z,4.27
2023-09-16T03:47:57.991Z,4.43
2023-09-16T03:50:25.815Z,3.93
2023-09-16T03:52:53.509Z,4.57
2023-09-16T03:55:21.216Z,3.83
2023-09-16T03:57:48.833Z,4.53
2023-09-16T04:00:18.116Z,3.90
2023-09-16T04:02:45.838Z,3.80
2023-09-16T04:05:14.755Z,4.57
2023-09-16T04:07:42.453Z,4.93
2023-09-16T04:10:10.856Z,4.20
2023-09-16T04:12:38.558Z,4.60
2023-09-16T04:15:07.718Z,4.27
2023-09-16T04:17:36.868Z,4.30
2023-09-16T04:20:06.976Z,5.00
2023-09-16T04:22:34.864Z,4.53
2023-09-16T04:25:02.936Z,4.90
2023-09-16T04:27:30.840Z,4.80
2023-09-16T04:29:58.481Z,4.67
2023-09-16T04:32:26.335Z,5.23
2023-09-16T04:34:58.613Z,4.60
2023-09-16T04:37:26.471Z,5.10
2023-09-16T04:39:54.385Z,4.53
2023-09-16T04:42:22.075Z,4.90
2023-09-16T04:44:49.822Z,4.20
2023-09-16T04:47:20.537Z,4.17
2023-09-16T04:49:49.383Z,4.27
2023-09-16T04:52:18.458Z,4.77
2023-09-16T04:54:46.671Z,4.60
2023-09-16T04:57:14.943Z,4.40
2023-09-16T04:59:44.221Z,4.70
2023-09-16T05:02:11.887Z,4.50
2023-09-16T05:04:39.539Z,4.67
2023-09-16T05:07:07.444Z,4.40
2023-09-16T05:09:36.832Z,4.20
2023-09-16T05:12:04.773Z,3.80
2023-09-16T05:14:32.388Z,4.00
2023-09-16T05:17:00.189Z,4.10
2023-09-16T05:19:27.968Z,4.00
2023-09-16T05:21:55.633Z,4.00
2023-09-16T05:24:23.301Z,4.67
2023-09-16T05:26:52.359Z,4.00
2023-09-16T05:29:20.139Z,4.10
2023-09-16T05:31:47.886Z,3.90
2023-09-16T05:34:15.558Z,4.03
2023-09-16T05:36:43.319Z,4.20
2023-09-16T05:39:10.991Z,4.93
2023-09-16T05:41:38.929Z,4.53
2023-09-16T05:44:08.174Z,4.33
2023-09-16T05:46:35.900Z,3.93
2023-09-16T05:49:08.928Z,4.10
2023-09-16T05:51:36.923Z,4.47
2023-09-16T05:54:04.901Z,3.90
2023-09-16T05:56:33.842Z,4.60
2023-09-16T05:59:01.784Z,4.57
2023-09-16T06:01:30.846Z,4.77
2023-09-16T06:03:58.611Z,3.80
2023-09-16T06:06:26.741Z,3.80
2023-09-16T06:08:54.362Z,4.47
2023-09-16T06:11:27.199Z,4.27
2023-09-16T06:13:54.888Z,3.20
2023-09-16T06:16:22.645Z,3.90
2023-09-16T06:18:52.046Z,3.83
2023-09-16T06:21:19.939Z,3.80
2023-09-16T06:23:47.918Z,3.97
2023-09-16T06:26:15.638Z,3.43
2023-09-16T06:28:43.619Z,3.47
2023-09-16T06:31:11.259Z,3.40
2023-09-16T06:33:39.135Z,3.40
2023-09-16T06:36:08.493Z,3.30
2023-09-16T06:38:36.183Z,3.57
2023-09-16T06:41:04.456Z,3.70
2023-09-16T06:43:32.088Z,3.77
2023-09-16T06:46:00.301Z,3.17
2023-09-16T06:48:28.010Z,3.23
2023-09-16T06:50:56.431Z,3.67
2023-09-16T06:53:25.472Z,3.90
2023-09-16T06:55:55.614Z,3.27
2023-09-16T06:58:24.602Z,3.77
2023-09-16T07:00:52.407Z,3.53
2023-09-16T07:03:20.349Z,3.33
2023-09-16T07:05:48.588Z,3.27
2023-09-16T07:08:16.532Z,3.30
2023-09-16T07:10:45.586Z,2.87
2023-09-16T07:13:13.579Z,3.47
2023-09-16T07:15:41.345Z,3.17
2023-09-16T07:18:09.169Z,3.30
2023-09-16T07:20:37.181Z,3.47
2023-09-16T07:23:05.434Z,3.20
2023-09-16T07:25:33.160Z,3.40
2023-09-16T07:28:04.137Z,3.50
2023-09-16T07:30:31.819Z,3.70
2023-09-16T07:32:59.563Z,3.70
2023-09-16T07:35:27.292Z,3.30
2023-09-16T07:37:54.945Z,2.60
2023-09-16T07:40:22.702Z,3.13
2023-09-16T07:42:50.395Z,3.20
2023-09-16T07:45:19.717Z,3.23
2023-09-16T07:47:47.511Z,3.40
2023-09-16T07:50:15.198Z,2.70
2023-09-16T07:52:43.340Z,2.93
2023-09-16T07:55:11.302Z,3.50
2023-09-16T07:57:38.969Z,3.20
2023-09-16T08:00:08.585Z,3.30
2023-09-16T08:02:37.723Z,3.43
2023-09-16T08:05:06.351Z,3.60
2023-09-16T08:07:35.963Z,3.50
2023-09-16T08:10:03.712Z,3.93
2023-09-16T08:12:31.482Z,3.60
2023-09-16T08:15:00.131Z,4.17
2023-09-16T08:17:27.820Z,4.37
2023-09-16T08:19:56.814Z,3.63
2023-09-16T08:22:24.556Z,3.50
2023-09-16T08:24:52.391Z,3.97
2023-09-16T08:27:21.224Z,3.67
2023-09-16T08:29:50.627Z,3.50
2023-09-16T08:32:18.469Z,3.50
2023-09-16T08:34:46.130Z,4.30
2023-09-16T08:37:15.210Z,4.27
2023-09-16T08:39:43.227Z,3.83
2023-09-16T08:42:17.074Z,4.17
2023-09-16T08:44:46.502Z,4.17
2023-09-16T08:47:17.570Z,4.30
2023-09-16T08:49:51.760Z,3.73
2023-09-16T08:52:22.057Z,4.10
2023-09-16T08:54:51.341Z,4.00
2023-09-16T08:57:20.611Z,3.80
2023-09-16T08:59:49.360Z,3.70
2023-09-16T09:02:17.564Z,3.97
2023-09-16T09:04:45.404Z,4.33
2023-09-16T09:07:14.632Z,4.30
2023-09-16T09:09:43.753Z,4.27
2023-09-16T09:12:12.084Z,4.40
2023-09-16T09:14:39.990Z,4.10
2023-09-16T09:17:09.888Z,4.37
2023-09-16T09:19:39.185Z,4.40
2023-09-16T09:22:07.296Z,4.77
2023-09-16T09:24:35.087Z,4.80
2023-09-16T09:27:04.133Z,4.63
2023-09-16T09:29:31.871Z,4.90
2023-09-16T09:31:59.902Z,4.70
2023-09-16T09:34:30.291Z,5.10
2023-09-16T09:36:57.961Z,4.47
2023-09-16T09:39:25.747Z,4.77
2023-09-16T09:41:54.045Z,4.90
2023-09-16T09:44:24.217Z,5.33
2023-09-16T09:46:51.942Z,4.83
2023-09-16T09:49:20.540Z,5.47
2023-09-16T09:51:49.552Z,5.00
2023-09-16T09:54:18.207Z,4.90
2023-09-16T09:56:46.469Z,5.20
2023-09-16T09:59:14.461Z,4.80
2023-09-16T10:01:43.971Z,5.30
2023-09-16T10:04:11.928Z,5.07
2023-09-16T10:06:40.009Z,4.70
2023-09-16T10:09:08.194Z,5.10
2023-09-16T10:11:37.398Z,4.93
2023-09-16T10:14:05.400Z,5.20
2023-09-16T10:16:33.210Z,4.70
2023-09-16T10:19:02.342Z,5.10
2023-09-16T10:21:30.058Z,4.87
2023-09-16T10:23:58.289Z,5.20
2023-09-16T10:26:25.952Z,5.27
2023-09-16T10:28:56.359Z,4.47
2023-09-16T10:31:25.243Z,4.83
2023-09-16T10:33:54.927Z,5.10
2023-09-16T10:36:24.265Z,4.43
2023-09-16T10:38:52.636Z,4.90
2023-09-16T10:41:22.500Z,5.07
2023-09-16T10:43:50.802Z,4.50
2023-09-16T10:46:19.098Z,4.63
2023-09-16T10:48:47.177Z,4.67
2023-09-16T10:51:20.162Z,5.23
2023-09-16T10:53:53.676Z,4.73
2023-09-16T10:56:31.999Z,5.50
2023-09-16T10:59:03.723Z,4.87
2023-09-16T11:01:37.423Z,5.80
2023-09-16T11:04:10.285Z,5.50
2023-09-16T11:06:38.156Z,4.37
2023-09-16T11:09:07.596Z,5.03
2023-09-16T11:11:36.400Z,5.13
2023-09-16T11:14:06.479Z,5.00
2023-09-16T11:16:44.894Z,5.50
2023-09-16T11:19:15.932Z,4.93
2023-09-16T11:21:44.180Z,5.57
2023-09-16T11:24:14.514Z,4.80
2023-09-16T11:26:42.460Z,5.07
2023-09-16T11:29:20.552Z,4.83
2023-09-16T11:31:48.605Z,5.30
2023-09-16T11:34:19.477Z,5.20
2023-09-16T11:36:52.983Z,5.70
2023-09-16T11:39:26.001Z,5.50
2023-09-16T11:41:54.240Z,4.63
2023-09-16T11:44:22.147Z,5.23
2023-09-16T11:46:50.504Z,5.53
2023-09-16T11:49:18.503Z,5.47
2023-09-16T11:51:52.102Z,4.70
2023-09-16T11:54:20.052Z,5.47
2023-09-16T11:56:49.038Z,5.07
2023-09-16T11:59:16.926Z,5.43
2023-09-16T12:01:44.897Z,5.63
2023-09-16T12:04:16.393Z,4.90
2023-09-16T12:06:45.408Z,4.90
2023-09-16T12:09:17.214Z,5.17
2023-09-16T12:11:50.717Z,5.77
2023-09-16T12:14:20.019Z,5.47
2023-09-16T12:16:48.182Z,5.17
2023-09-16T12:19:17.230Z,5.60
2023-09-16T12:21:49.151Z,5.10
2023-09-16T12:24:21.231Z,5.40
2023-09-16T12:26:49.888Z,4.70
2023-09-16T12:29:17.574Z,4.73
2023-09-16T12:31:46.817Z,5.00
2023-09-16T12:34:19.137Z,5.07
2023-09-16T12:36:52.208Z,5.30
2023-09-16T12:39:22.984Z,5.67
2023-09-16T12:42:04.455Z,4.67
2023-09-16T12:44:33.645Z,5.17
2023-09-16T12:47:04.599Z,4.53
2023-09-16T12:49:33.032Z,4.60
2023-09-16T12:52:00.925Z,4.70
2023-09-16T12:54:31.697Z,4.80
2023-09-16T12:56:59.440Z,5.17
2023-09-16T12:59:27.345Z,5.00
2023-09-16T13:01:55.701Z,4.77
2023-09-16T13:04:25.276Z,4.57
2023-09-16T13:06:54.425Z,5.10
2023-09-16T13:09:22.559Z,4.40
2023-09-16T13:11:52.038Z,4.80
2023-09-16T13:14:20.518Z,4.17
2023-09-16T13:16:48.550Z,4.80
2023-09-16T13:19:22.085Z,5.50
2023-09-16T13:21:51.918Z,4.53
2023-09-16T13:24:19.718Z,4.80
2023-09-16T13:26:50.954Z,4.93
2023-09-16T13:29:18.699Z,4.17
2023-09-16T13:31:47.083Z,3.90
2023-09-16T13:34:14.805Z,4.30
2023-09-16T13:36:43.315Z,4.30
2023-09-16T13:39:12.546Z,4.00
2023-09-16T13:41:41.639Z,4.07
2023-09-16T13:44:09.992Z,4.93
2023-09-16T13:46:37.717Z,3.83
2023-09-16T13:49:05.693Z,4.13
2023-09-16T13:51:33.473Z,4.70
2023-09-16T13:54:01.322Z,4.60
2023-09-16T13:56:31.192Z,4.13
2023-09-16T13:58:58.945Z,3.70
2023-09-16T14:01:27.590Z,4.40
2023-09-16T14:03:55.546Z,4.17
2023-09-16T14:06:23.893Z,4.00
2023-09-16T14:08:51.917Z,4.40
2023-09-16T14:11:20.862Z,4.30
2023-09-16T14:13:50.184Z,4.60
2023-09-16T14:16:17.825Z,4.87
2023-09-16T14:18:45.892Z,4.37
2023-09-16T14:21:13.626Z,4.43
2023-09-16T14:23:41.352Z,4.03
2023-09-16T14:26:09.132Z,4.20
2023-09-16T14:28:36.692Z,4.50
2023-09-16T14:31:08.826Z,4.07
2023-09-16T14:33:36.942Z,3.93
2023-09-16T14:36:05.472Z,3.80
2023-09-16T14:38:33.240Z,3.80
2023-09-16T14:41:05.519Z,4.23
2023-09-16T14:43:33.219Z,3.87
2023-09-16T14:46:00.931Z,3.77
2023-09-16T14:48:30.224Z,4.30
2023-09-16T14:50:57.949Z,3.90
2023-09-16T14:53:25.722Z,4.30
2023-09-16T14:55:53.450Z,3.73
2023-09-16T14:58:21.394Z,4.30
2023-09-16T15:00:49.330Z,3.60
2023-09-16T15:03:17.139Z,4.00
2023-09-16T15:05:46.270Z,3.70
2023-09-16T15:08:14.055Z,3.60
2023-09-16T15:10:43.201Z,3.80
2023-09-16T15:13:11.932Z,4.23
2023-09-16T15:15:39.727Z,3.70
2023-09-16T15:18:07.660Z,4.30
2023-09-16T15:20:35.285Z,4.37
2023-09-16T15:23:04.565Z,4.00
2023-09-16T15:25:32.282Z,4.10
2023-09-16T15:28:00.011Z,4.20
2023-09-16T15:30:28.404Z,3.93
2023-09-16T15:32:56.252Z,4.20
2023-09-16T15:35:24.506Z,3.13
2023-09-16T15:37:52.374Z,3.97
2023-09-16T15:40:21.481Z,3.30
2023-09-16T15:42:50.416Z,3.30
2023-09-16T15:45:18.896Z,3.50
2023-09-16T15:47:46.618Z,3.53
2023-09-16T15:50:15.520Z,4.10
2023-09-16T15:52:43.233Z,3.73
2023-09-16T15:55:11.050Z,3.60
2023-09-16T15:57:40.564Z,4.13
2023-09-16T16:00:09.360Z,3.70
2023-09-16T16:02:37.944Z,3.30
2023-09-16T16:05:06.949Z,3.40
2023-09-16T16:07:34.760Z,3.30
2023-09-16T16:10:04.090Z,3.20
2023-09-16T16:12:31.748Z,3.53
2023-09-16T16:15:00.789Z,3.40
2023-09-16T16:17:29.718Z,3.70
2023-09-16T16:19:57.481Z,3.80
2023-09-16T16:22:25.192Z,3.50
2023-09-16T16:24:52.986Z,3.20
2023-09-16T16:27:20.914Z,3.43
2023-09-16T16:29:48.985Z,3.23
2023-09-16T16:32:19.207Z,3.93
2023-09-16T16:34:47.553Z,3.77
2023-09-16T16:37:15.584Z,3.80
2023-09-16T16:39:43.185Z,4.13
2023-09-16T16:42:10.817Z,4.30
2023-09-16T16:44:40.695Z,3.90
2023-09-16T16:47:08.454Z,3.97
2023-09-16T16:49:37.539Z,4.10
2023-09-16T16:52:05.519Z,5.10
2023-09-16T16:54:34.127Z,5.20
2023-09-16T16:57:03.187Z,5.37
2023-09-16T16:59:30.897Z,6.43
2023-09-16T17:01:59.122Z,6.70
2023-09-16T17:04:26.935Z,6.27
2023-09-16T17:06:55.959Z,5.67
2023-09-16T17:09:24.259Z,5.87
2023-09-16T17:11:51.896Z,5.40
2023-09-16T17:14:19.585Z,6.60
2023-09-16T17:16:47.726Z,5.53
2023-09-16T17:19:15.465Z,5.70
2023-09-16T17:21:43.225Z,5.20
2023-09-16T17:24:12.338Z,6.80
2023-09-16T17:26:40.030Z,6.97
2023-09-16T17:29:07.891Z,7.80
2023-09-16T17:31:35.891Z,7.77
2023-09-16T17:34:03.929Z,8.07
2023-09-16T17:36:31.982Z,7.87
2023-09-16T17:38:59.843Z,7.90
2023-09-16T17:41:29.175Z,8.87
2023-09-16T17:43:56.836Z,7.90
2023-09-16T17:46:24.692Z,7.80
2023-09-16T17:48:53.039Z,7.60
2023-09-16T17:51:20.870Z,7.80
2023-09-16T17:53:50.214Z,8.87
2023-09-16T17:56:18.493Z,9.50
2023-09-16T17:58:47.554Z,10.40
2023-09-16T18:01:15.409Z,9.50
2023-09-16T18:03:43.530Z,9.97
2023-09-16T18:06:11.206Z,9.43
2023-09-16T18:08:39.703Z,8.20
2023-09-16T18:11:07.602Z,7.73
2023-09-16T18:13:35.304Z,7.87
2023-09-16T18:16:05.776Z,7.53
2023-09-16T18:18:33.524Z,7.83
2023-09-16T18:21:01.573Z,8.20
2023-09-16T18:23:32.607Z,6.40
2023-09-16T18:26:01.131Z,7.63
2023-09-16T18:28:29.624Z,8.77
2023-09-16T18:30:57.437Z,8.00
2023-09-16T18:33:28.514Z,8.70
2023-09-16T18:35:56.292Z,7.87
2023-09-16T18:38:24.791Z,8.60
2023-09-16T18:40:52.593Z,8.77
2023-09-16T18:43:20.720Z,9.60
2023-09-16T18:45:48.858Z,11.43
2023-09-16T18:48:17.265Z,12.90
2023-09-16T18:50:46.290Z,12.80
2023-09-16T18:53:14.010Z,11.37
2023-09-16T18:55:45.199Z,10.33
2023-09-16T18:58:14.568Z,10.70
2023-09-16T19:00:43.961Z,11.70
2023-09-16T19:03:11.994Z,11.47
2023-09-16T19:05:40.958Z,10.60
2023-09-16T19:08:11.331Z,10.07
2023-09-16T19:10:40.783Z,8.37
2023-09-16T19:13:09.067Z,8.00
2023-09-16T19:15:37.555Z,7.03
2023-09-16T19:18:06.044Z,6.43
2023-09-16T19:20:33.718Z,6.00
2023-09-16T19:23:02.193Z,5.40
2023-09-16T19:25:31.261Z,4.80
2023-09-16T19:28:00.135Z,5.50
2023-09-16T19:30:28.227Z,5.60
2023-09-16T19:32:57.781Z,5.10
2023-09-16T19:35:26.075Z,6.17
2023-09-16T19:37:54.184Z,6.60
2023-09-16T19:40:23.122Z,7.00
2023-09-16T19:42:52.445Z,7.30
2023-09-16T19:45:20.034Z,7.30
2023-09-16T19:47:47.886Z,8.07
2023-09-16T19:50:15.800Z,7.90
2023-09-16T19:52:43.437Z,7.17
2023-09-16T19:55:11.163Z,7.60
2023-09-16T19:57:38.934Z,7.60
2023-09-16T20:00:10.605Z,6.90
2023-09-16T20:02:38.685Z,7.50
2023-09-16T20:05:08.567Z,7.10
2023-09-16T20:07:36.362Z,6.57
2023-09-16T20:10:04.367Z,6.50
2023-09-16T20:12:32.224Z,6.00
2023-09-16T20:14:59.952Z,6.80
2023-09-16T20:17:29.146Z,10.73
2023-09-16T20:19:56.887Z,7.53
2023-09-16T20:22:24.631Z,7.70
2023-09-16T20:24:52.276Z,7.50
2023-09-16T20:27:20.356Z,8.10
2023-09-16T20:29:48.425Z,7.00
2023-09-16T20:32:16.385Z,7.50
2023-09-16T20:34:46.896Z,7.37
2023-09-16T20:37:14.787Z,8.20
2023-09-16T20:39:42.584Z,8.57
2023-09-16T20:42:11.422Z,8.30
2023-09-16T20:44:39.347Z,8.40
2023-09-16T20:47:09.248Z,8.53
2023-09-16T20:49:37.616Z,7.90
2023-09-16T20:52:07.196Z,7.40
2023-09-16T20:54:35.004Z,7.23
2023-09-16T20:57:04.197Z,7.70
2023-09-16T20:59:34.245Z,7.80
2023-09-16T21:02:04.171Z,7.20
2023-09-16T21:04:32.976Z,7.93
2023-09-16T21:07:00.775Z,8.93
2023-09-16T21:09:29.817Z,8.70
2023-09-16T21:11:57.670Z,8.87
2023-09-16T21:14:26.897Z,8.60
2023-09-16T21:16:55.750Z,8.43
2023-09-16T21:19:23.643Z,8.90
2023-09-16T21:21:51.616Z,8.37
2023-09-16T21:24:19.468Z,10.13
2023-09-16T21:26:50.561Z,9.53
2023-09-16T21:29:19.701Z,9.83
2023-09-16T21:31:59.357Z,9.80
2023-09-16T21:34:29.691Z,9.23
2023-09-16T21:36:58.193Z,9.63
2023-09-16T21:39:25.914Z,10.13
2023-09-16T21:41:55.192Z,10.00
2023-09-16T21:44:24.228Z,10.23
2023-09-16T21:46:52.031Z,10.50
2023-09-16T21:49:19.931Z,10.40
2023-09-16T21:51:47.595Z,10.17
2023-09-16T21:54:15.165Z,9.60
2023-09-16T21:56:43.159Z,11.27
2023-09-16T21:59:12.247Z,10.67
2023-09-16T22:01:40.033Z,10.03
2023-09-16T22:04:07.783Z,9.53
2023-09-16T22:06:35.431Z,9.20
2023-09-16T22:09:03.078Z,9.63
2023-09-16T22:11:30.734Z,9.80
2023-09-16T22:13:58.477Z,9.70
2023-09-16T22:16:28.118Z,8.87
2023-09-16T22:18:55.857Z,10.93
2023-09-16T22:21:23.523Z,9.67
2023-09-16T22:23:51.417Z,10.60
2023-09-16T22:26:19.358Z,10.60
2023-09-16T22:28:47.066Z,10.40
2023-09-16T22:31:15.898Z,10.60
2023-09-16T22:33:45.278Z,10.03
2023-09-16T22:36:13.031Z,9.53
2023-09-16T22:38:40.752Z,8.70
2023-09-16T22:41:08.740Z,9.17
2023-09-16T22:43:36.378Z,8.00
2023-09-16T22:46:04.182Z,7.10
2023-09-16T22:48:31.978Z,8.60
2023-09-16T22:51:00.931Z,8.27
2023-09-16T22:53:28.579Z,7.63
2023-09-16T22:55:59.377Z,6.90
2023-09-16T22:58:27.126Z,8.73
2023-09-16T23:00:54.849Z,7.20
2023-09-16T23:03:22.858Z,7.37
2023-09-16T23:05:50.711Z,7.50
2023-09-16T23:08:19.654Z,6.90
2023-09-16T23:10:47.294Z,6.90
2023-09-16T23:13:15.040Z,7.73
2023-09-16T23:15:42.725Z,7.50
2023-09-16T23:18:10.652Z,7.20
2023-09-16T23:20:39.931Z,7.67
2023-09-16T23:23:09.144Z,7.77
2023-09-16T23:25:38.162Z,6.90
2023-09-16T23:28:06.579Z,6.70
2023-09-16T23:30:34.411Z,7.60
2023-09-16T23:33:02.137Z,7.07
2023-09-16T23:35:29.845Z,7.13
2023-09-16T23:37:57.732Z,7.67
2023-09-16T23:40:26.454Z,8.50
2023-09-16T23:42:55.436Z,8.50
2023-09-16T23:45:23.184Z,6.97
2023-09-16T23:47:50.827Z,7.50
2023-09-16T23:50:18.667Z,8.03
2023-09-16T23:52:46.405Z,7.97
2023-09-16T23:55:14.526Z,7.77
2023-09-16T23:57:42.290Z,7.80
